createdAt,value
2022-10-19T00:01:38.892Z,99264.13
2022-10-19T00:04:08.664Z,99262.13
2022-10-19T00:06:36.670Z,99263.44
2022-10-19T00:09:08.520Z,99267.28
2022-10-19T00:11:37.069Z,99273.16
2022-10-19T00:14:04.718Z,99272.13
2022-10-19T00:16:34.168Z,99273.16
2022-10-19T00:19:04.283Z,99273.50
2022-10-19T00:21:31.065Z,99273.03
2022-10-19T00:23:57.843Z,99272.69
2022-10-19T00:26:26.079Z,99271.69
2022-10-19T00:28:56.573Z,99271.69
2022-10-19T00:31:23.847Z,99267.50
2022-10-19T00:33:50.603Z,99268.69
2022-10-19T00:36:42.119Z,99275.38
2022-10-19T00:39:12.869Z,99272.53
2022-10-19T00:41:40.099Z,99265.38
2022-10-19T00:44:29.534Z,99260.41
2022-10-19T00:47:05.362Z,99260.91
2022-10-19T00:49:39.551Z,99264.06
2022-10-19T00:52:14.283Z,99257.88
2022-10-19T00:54:42.715Z,99250.91
2022-10-19T00:57:09.978Z,99250.56
2022-10-19T00:59:37.084Z,99259.56
2022-10-19T01:02:05.762Z,99258.56
2022-10-19T01:04:35.472Z,99254.84
2022-10-19T01:07:04.007Z,99265.19
2022-10-19T01:09:30.639Z,99276.41
2022-10-19T01:12:08.154Z,99270.25
2022-10-19T01:14:50.163Z,99266.56
2022-10-19T01:17:39.059Z,99266.72
2022-10-19T01:20:30.782Z,99262.25
2022-10-19T01:23:29.315Z,99268.75
2022-10-19T01:26:03.152Z,99257.41
2022-10-19T01:29:08.683Z,99255.41
2022-10-19T01:31:44.543Z,99256.56
2022-10-19T01:34:21.361Z,99241.88
2022-10-19T01:37:00.753Z,99239.88
2022-10-19T01:39:36.270Z,99235.84
2022-10-19T01:42:16.829Z,99242.69
2022-10-19T01:44:49.186Z,99249.19
2022-10-19T01:47:20.021Z,99239.19
2022-10-19T01:50:03.491Z,99228.88
2022-10-19T01:52:31.576Z,99240.00
2022-10-19T01:54:59.907Z,99231.69
2022-10-19T01:57:34.982Z,99228.19
2022-10-19T02:00:07.514Z,99222.50
2022-10-19T02:02:46.637Z,99220.88
2022-10-19T02:05:14.419Z,99216.00
2022-10-19T02:07:45.313Z,99213.34
2022-10-19T02:10:11.979Z,99211.50
2022-10-19T02:12:39.265Z,99213.69
2022-10-19T02:15:11.239Z,99217.19
2022-10-19T02:17:45.780Z,99213.84
2022-10-19T02:20:13.272Z,99212.53
2022-10-19T02:22:40.481Z,99217.34
2022-10-19T02:25:07.827Z,99206.84
2022-10-19T02:27:35.070Z,99206.84
2022-10-19T02:30:01.943Z,99199.50
2022-10-19T02:32:28.621Z,99198.69
2022-10-19T02:34:55.321Z,99196.03
2022-10-19T02:37:23.433Z,99190.22
2022-10-19T02:39:52.339Z,99191.72
2022-10-19T02:42:23.526Z,99195.19
2022-10-19T02:44:57.519Z,99187.00
2022-10-19T02:47:33.920Z,99177.84
2022-10-19T02:50:01.429Z,99185.16
2022-10-19T02:52:28.362Z,99186.53
2022-10-19T02:54:55.044Z,99189.06
2022-10-19T02:57:24.080Z,99174.03
2022-10-19T02:59:51.736Z,99178.38
2022-10-19T03:02:19.941Z,99185.16
2022-10-19T03:07:34.602Z,99186.84
2022-10-19T03:10:01.720Z,99174.69
2022-10-19T03:12:28.625Z,99168.84
2022-10-19T03:14:55.441Z,99172.50
2022-10-19T03:17:22.171Z,99174.34
2022-10-19T03:19:48.774Z,99173.38
2022-10-19T03:22:15.821Z,99171.19
2022-10-19T03:24:42.497Z,99165.53
2022-10-19T03:27:09.241Z,99173.50
2022-10-19T03:29:36.283Z,99171.19
2022-10-19T03:32:02.913Z,99174.38
2022-10-19T03:34:29.499Z,99171.03
2022-10-19T03:36:56.851Z,99163.50
2022-10-19T03:39:23.555Z,99158.50
2022-10-19T03:41:50.162Z,99156.03
2022-10-19T03:44:16.807Z,99164.53
2022-10-19T03:46:43.623Z,99161.69
2022-10-19T03:49:15.674Z,99159.88
2022-10-19T03:51:42.409Z,99152.19
2022-10-19T03:54:13.030Z,99156.88
2022-10-19T03:56:39.631Z,99156.88
2022-10-19T03:59:07.020Z,99163.53
2022-10-19T04:01:38.912Z,99160.53
2022-10-19T04:04:09.032Z,99159.38
2022-10-19T04:06:38.135Z,99160.53
2022-10-19T04:09:06.704Z,99166.53
2022-10-19T04:11:34.256Z,99172.50
2022-10-19T04:14:01.768Z,99152.53
2022-10-19T04:16:30.533Z,99160.19
2022-10-19T04:18:57.983Z,99163.00
2022-10-19T04:21:35.547Z,99158.81
2022-10-19T04:24:03.713Z,99153.81
2022-10-19T04:26:30.699Z,99161.31
2022-10-19T04:28:58.884Z,99158.16
2022-10-19T04:31:26.440Z,99160.66
2022-10-19T04:33:53.244Z,99158.66
2022-10-19T04:36:19.899Z,99158.47
2022-10-19T04:38:46.595Z,99167.13
2022-10-19T04:41:16.345Z,99164.47
2022-10-19T04:43:45.379Z,99169.44
2022-10-19T04:46:14.339Z,99172.44
2022-10-19T04:48:41.653Z,99167.13
2022-10-19T04:51:09.356Z,99171.97
2022-10-19T04:53:37.844Z,99174.44
2022-10-19T04:56:06.499Z,99164.81
2022-10-19T04:58:33.368Z,99162.81
2022-10-19T05:01:00.388Z,99167.97
2022-10-19T05:03:27.173Z,99165.16
2022-10-19T05:05:54.029Z,99163.16
2022-10-19T05:08:20.620Z,99164.81
2022-10-19T05:10:47.830Z,99156.50
2022-10-19T05:13:14.607Z,99160.16
2022-10-19T05:15:41.279Z,99158.16
2022-10-19T05:18:07.922Z,99160.66
2022-10-19T05:20:34.590Z,99161.34
2022-10-19T05:23:06.158Z,99166.00
2022-10-19T05:25:34.030Z,99159.84
2022-10-19T05:28:00.706Z,99154.50
2022-10-19T05:30:27.665Z,99163.50
2022-10-19T05:32:54.301Z,99155.19
2022-10-19T05:35:22.658Z,99166.00
2022-10-19T05:37:54.427Z,99153.16
2022-10-19T05:40:21.278Z,99160.31
2022-10-19T05:42:47.921Z,99164.47
2022-10-19T05:45:14.657Z,99159.16
2022-10-19T05:47:41.286Z,99153.81
2022-10-19T05:50:08.265Z,99155.28
2022-10-19T05:52:34.885Z,99156.13
2022-10-19T05:55:01.505Z,99149.28
2022-10-19T05:57:28.176Z,99152.09
2022-10-19T05:59:56.790Z,99161.44
2022-10-19T06:02:23.772Z,99160.06
2022-10-19T06:04:50.483Z,99164.84
2022-10-19T06:07:17.152Z,99162.19
2022-10-19T06:09:43.867Z,99173.00
2022-10-19T06:12:10.560Z,99181.31
2022-10-19T06:14:37.274Z,99179.00
2022-10-19T06:17:04.068Z,99179.53
2022-10-19T06:19:30.880Z,99183.41
2022-10-19T06:21:57.509Z,99180.09
2022-10-19T06:24:24.276Z,99175.09
2022-10-19T06:26:50.874Z,99173.47
2022-10-19T06:29:17.657Z,99166.31
2022-10-19T06:31:45.705Z,99173.66
2022-10-19T06:34:12.464Z,99174.16
2022-10-19T06:36:39.144Z,99177.34
2022-10-19T06:39:05.769Z,99183.16
2022-10-19T06:41:32.683Z,99176.00
2022-10-19T06:44:16.109Z,99166.53
2022-10-19T06:46:42.731Z,99179.03
2022-10-19T06:49:12.624Z,99178.03
2022-10-19T06:51:40.702Z,99175.69
2022-10-19T06:54:07.521Z,99170.53
2022-10-19T06:56:34.666Z,99176.03
2022-10-19T06:59:01.286Z,99177.19
2022-10-19T07:01:28.316Z,99171.69
2022-10-19T07:03:55.426Z,99171.72
2022-10-19T07:06:22.209Z,99169.34
2022-10-19T07:08:49.132Z,99171.53
2022-10-19T07:11:18.588Z,99171.72
2022-10-19T07:13:45.241Z,99178.00
2022-10-19T07:16:17.904Z,99177.69
2022-10-19T07:18:47.948Z,99176.34
2022-10-19T07:21:16.300Z,99178.16
2022-10-19T07:23:44.467Z,99183.16
2022-10-19T07:26:16.087Z,99188.81
2022-10-19T07:28:44.660Z,99181.16
2022-10-19T07:31:13.628Z,99186.31
2022-10-19T07:33:40.262Z,99192.50
2022-10-19T07:36:08.703Z,99197.66
2022-10-19T07:38:35.731Z,99196.81
2022-10-19T07:41:07.667Z,99188.63
2022-10-19T07:43:34.905Z,99187.94
2022-10-19T07:46:03.634Z,99186.41
2022-10-19T07:48:30.836Z,99198.31
2022-10-19T07:50:57.636Z,99187.94
2022-10-19T07:53:24.601Z,99191.19
2022-10-19T07:55:51.276Z,99191.84
2022-10-19T07:58:17.878Z,99196.84
2022-10-19T08:00:44.667Z,99189.31
2022-10-19T08:03:43.609Z,99202.47
2022-10-19T08:06:02.391Z,99190.56
2022-10-19T08:08:29.383Z,99192.53
2022-10-19T08:10:56.320Z,99190.03
2022-10-19T08:13:23.515Z,99194.34
2022-10-19T08:15:50.400Z,99189.88
2022-10-19T08:18:18.455Z,99189.97
2022-10-19T08:20:45.137Z,99183.91
2022-10-19T08:23:11.817Z,99196.75
2022-10-19T08:25:38.536Z,99192.78
2022-10-19T08:28:05.235Z,99184.78
2022-10-19T08:30:32.144Z,99179.72
2022-10-19T08:32:58.757Z,99183.50
2022-10-19T08:35:25.751Z,99178.09
2022-10-19T08:37:52.772Z,99176.53
2022-10-19T08:40:23.679Z,99178.69
2022-10-19T08:43:00.648Z,99176.25
2022-10-19T08:45:39.339Z,99170.22
2022-10-19T08:48:29.507Z,99178.81
2022-10-19T08:50:57.327Z,99181.19
2022-10-19T08:53:32.472Z,99184.16
2022-10-19T08:56:39.044Z,99190.63
2022-10-19T08:59:11.320Z,99188.78
2022-10-19T09:01:50.110Z,99194.97
2022-10-19T09:04:26.592Z,99187.97
2022-10-19T09:07:16.814Z,99190.28
2022-10-19T09:12:41.145Z,99183.28
2022-10-19T09:15:13.380Z,99187.72
2022-10-19T09:17:40.054Z,99174.38
2022-10-19T09:20:22.122Z,99169.25
2022-10-19T09:22:58.788Z,99165.22
2022-10-19T09:25:25.774Z,99172.25
2022-10-19T09:28:10.679Z,99164.06
2022-10-19T09:30:38.110Z,99164.19
2022-10-19T09:33:06.234Z,99171.38
2022-10-19T09:35:36.841Z,99162.00
2022-10-19T09:38:05.353Z,99164.47
2022-10-19T09:40:32.134Z,99168.16
2022-10-19T09:42:59.523Z,99160.69
2022-10-19T09:45:45.899Z,99166.88
2022-10-19T09:48:23.834Z,99167.34
2022-10-19T09:50:59.701Z,99156.25
2022-10-19T09:53:27.179Z,99158.38
2022-10-19T09:56:19.006Z,99157.09
2022-10-19T09:58:50.643Z,99159.38
2022-10-19T10:01:41.831Z,99163.75
2022-10-19T10:04:18.731Z,99163.63
2022-10-19T10:06:48.292Z,99160.03
2022-10-19T10:09:37.990Z,99159.22
2022-10-19T10:12:04.786Z,99155.44
2022-10-19T10:14:33.803Z,99155.81
2022-10-19T10:17:16.352Z,99149.44
2022-10-19T10:20:00.287Z,99154.22
2022-10-19T10:22:37.777Z,99158.00
2022-10-19T10:25:18.222Z,99152.47
2022-10-19T10:28:12.692Z,99145.44
2022-10-19T10:30:39.337Z,99151.41
2022-10-19T10:33:15.855Z,99144.84
2022-10-19T10:35:55.960Z,99139.63
2022-10-19T10:38:26.713Z,99135.34
2022-10-19T10:41:08.338Z,99133.47
2022-10-19T10:43:36.863Z,99129.00
2022-10-19T10:46:08.612Z,99136.16
2022-10-19T10:48:42.521Z,99122.97
2022-10-19T10:51:25.358Z,99126.59
2022-10-19T10:53:52.104Z,99118.25
2022-10-19T10:56:23.880Z,99120.44
2022-10-19T10:58:56.540Z,99114.66
2022-10-19T11:01:24.484Z,99115.09
2022-10-19T11:03:56.327Z,99107.69
2022-10-19T11:06:25.653Z,99104.06
2022-10-19T11:09:16.011Z,99106.03
2022-10-19T11:11:45.433Z,99105.84
2022-10-19T11:14:37.556Z,99104.94
2022-10-19T11:17:07.147Z,99100.16
2022-10-19T11:19:44.532Z,99095.50
2022-10-19T11:22:32.163Z,99093.84
2022-10-19T11:25:17.856Z,99080.19
2022-10-19T11:28:06.400Z,99088.69
2022-10-19T11:30:42.827Z,99074.97
2022-10-19T11:33:25.165Z,99071.63
2022-10-19T11:35:54.414Z,99068.13
2022-10-19T11:38:39.857Z,99071.75
2022-10-19T11:41:18.294Z,99068.91
2022-10-19T11:44:10.402Z,99055.78
2022-10-19T11:46:45.717Z,99052.91
2022-10-19T11:49:38.490Z,99047.44
2022-10-19T11:52:50.281Z,99039.00
2022-10-19T11:55:38.104Z,99035.75
2022-10-19T11:58:19.881Z,99033.66
2022-10-19T12:01:09.738Z,99024.25
2022-10-19T12:04:00.052Z,99022.88
2022-10-19T12:06:45.348Z,99019.09
2022-10-19T12:09:28.248Z,99012.81
2022-10-19T12:12:16.947Z,99015.50
2022-10-19T12:14:46.926Z,99005.75
2022-10-19T12:17:31.557Z,98994.72
2022-10-19T12:20:17.540Z,99005.03
2022-10-19T12:22:46.431Z,99005.03
2022-10-19T12:25:14.781Z,99001.84
2022-10-19T12:27:41.994Z,99006.19
2022-10-19T12:30:29.100Z,99003.63
2022-10-19T12:33:03.708Z,99002.81
2022-10-19T12:35:30.296Z,98997.56
2022-10-19T12:38:18.858Z,98993.41
2022-10-19T12:41:00.722Z,98984.84
2022-10-19T12:43:44.052Z,98977.94
2022-10-19T12:46:41.700Z,98973.63
2022-10-19T12:49:36.405Z,98967.75
2022-10-19T12:52:03.787Z,98969.69
2022-10-19T12:54:34.778Z,98978.63
2022-10-19T12:57:04.103Z,98968.66
2022-10-19T12:59:35.732Z,98959.66
2022-10-19T13:02:05.673Z,98966.25
2022-10-19T13:14:04.889Z,98954.53
2022-10-19T13:16:32.629Z,98956.25
2022-10-19T13:18:59.215Z,98951.38
2022-10-19T13:21:44.897Z,98940.16
2022-10-19T13:24:23.737Z,98940.97
2022-10-19T13:27:02.375Z,98931.56
2022-10-19T13:29:39.120Z,98941.50
2022-10-19T13:32:30.959Z,98935.31
2022-10-19T13:35:26.333Z,98934.09
2022-10-19T13:38:11.986Z,98927.69
2022-10-19T13:40:42.039Z,98920.44
2022-10-19T13:43:19.241Z,98921.13
2022-10-19T13:46:15.853Z,98924.03
2022-10-19T13:49:01.514Z,98925.06
2022-10-19T13:51:43.688Z,98925.31
2022-10-19T13:54:16.369Z,98914.53
2022-10-19T13:56:59.141Z,98913.66
2022-10-19T13:59:49.388Z,98906.47
2022-10-19T14:02:23.769Z,98904.56
2022-10-19T14:05:21.756Z,98906.16
2022-10-19T14:07:51.535Z,98900.09
2022-10-19T14:10:21.013Z,98897.09
2022-10-19T14:12:48.933Z,98896.53
2022-10-19T14:15:18.569Z,98889.53
2022-10-19T14:17:45.895Z,98881.31
2022-10-19T14:20:24.707Z,98883.41
2022-10-19T14:22:52.149Z,98879.41
2022-10-19T14:25:21.783Z,98878.03
2022-10-19T14:27:59.466Z,98873.38
2022-10-19T14:30:34.799Z,98867.84
2022-10-19T14:33:07.669Z,98865.06
2022-10-19T14:35:37.457Z,98860.53
2022-10-19T14:38:06.132Z,98853.47
2022-10-19T14:40:34.755Z,98853.34
2022-10-19T14:43:01.622Z,98850.25
2022-10-19T14:45:32.713Z,98853.34
2022-10-19T14:48:07.010Z,98855.53
2022-10-19T14:50:43.381Z,98855.03
2022-10-19T14:53:20.340Z,98851.75
2022-10-19T14:55:48.033Z,98848.19
2022-10-19T14:58:18.751Z,98847.78
2022-10-19T15:00:47.177Z,98848.69
2022-10-19T15:03:20.933Z,98845.41
2022-10-19T15:05:49.355Z,98849.53
2022-10-19T15:08:31.007Z,98845.56
2022-10-19T15:10:57.821Z,98841.78
2022-10-19T15:13:27.922Z,98840.78
2022-10-19T15:15:55.185Z,98845.13
2022-10-19T15:18:47.616Z,98850.22
2022-10-19T15:21:18.970Z,98840.72
2022-10-19T15:23:50.086Z,98836.31
2022-10-19T15:26:25.886Z,98836.06
2022-10-19T15:28:54.095Z,98827.84
2022-10-19T15:31:25.646Z,98841.03
2022-10-19T15:33:54.573Z,98837.00
2022-10-19T15:36:22.590Z,98842.44
2022-10-19T15:39:06.374Z,98842.06
2022-10-19T15:41:44.980Z,98833.97
2022-10-19T15:44:49.017Z,98833.22
2022-10-19T15:47:15.717Z,98832.34
2022-10-19T15:49:42.620Z,98818.72
2022-10-19T15:52:22.806Z,98819.72
2022-10-19T15:54:50.880Z,98818.72
2022-10-19T15:57:31.573Z,98819.06
2022-10-19T16:00:00.564Z,98810.84
2022-10-19T16:02:27.227Z,98815.00
2022-10-19T16:04:54.450Z,98815.81
2022-10-19T16:07:26.936Z,98818.31
2022-10-19T16:09:54.488Z,98813.63
2022-10-19T16:12:22.225Z,98816.66
2022-10-19T16:14:48.816Z,98808.81
2022-10-19T16:17:15.947Z,98813.09
2022-10-19T16:19:42.933Z,98808.94
2022-10-19T16:22:09.759Z,98808.09
2022-10-19T16:24:36.405Z,98808.47
2022-10-19T16:27:03.123Z,98812.09
2022-10-19T16:29:29.797Z,98808.06
2022-10-19T16:31:56.392Z,98809.88
2022-10-19T16:34:23.092Z,98806.81
2022-10-19T16:36:49.790Z,98811.50
2022-10-19T16:39:16.555Z,98810.88
2022-10-19T16:41:44.317Z,98815.28
2022-10-19T16:44:12.518Z,98811.19
2022-10-19T16:46:39.605Z,98812.28
2022-10-19T16:49:06.331Z,98805.28
2022-10-19T16:51:42.647Z,98814.13
2022-10-19T16:54:11.361Z,98819.59
2022-10-19T16:56:45.905Z,98813.41
2022-10-19T16:59:14.966Z,98818.94
2022-10-19T17:01:42.330Z,98816.81
2022-10-19T17:04:09.095Z,98812.56
2022-10-19T17:06:35.800Z,98810.91
2022-10-19T17:11:49.977Z,98809.84
2022-10-19T17:14:16.566Z,98811.91
2022-10-19T17:16:43.294Z,98810.16
2022-10-19T17:19:10.518Z,98813.63
2022-10-19T17:21:38.649Z,98803.63
2022-10-19T17:24:07.768Z,98813.34
2022-10-19T17:26:40.265Z,98806.72
2022-10-19T17:29:06.887Z,98814.34
2022-10-19T17:31:34.139Z,98817.91
2022-10-19T17:34:01.966Z,98817.16
2022-10-19T17:36:30.870Z,98809.84
2022-10-19T17:39:00.021Z,98815.47
2022-10-19T17:41:27.675Z,98824.44
2022-10-19T17:43:55.018Z,98812.50
2022-10-19T17:46:24.331Z,98810.34
2022-10-19T17:48:51.175Z,98816.50
2022-10-19T17:51:20.419Z,98813.91
2022-10-19T17:53:48.402Z,98806.09
2022-10-19T17:56:20.011Z,98812.41
2022-10-19T17:58:46.926Z,98817.13
2022-10-19T18:01:14.492Z,98817.84
2022-10-19T18:03:41.473Z,98830.34
2022-10-19T18:06:18.761Z,98830.22
2022-10-19T18:08:49.105Z,98820.25
2022-10-19T18:11:24.856Z,98826.41
2022-10-19T18:13:52.703Z,98829.78
2022-10-19T18:16:25.500Z,98828.31
2022-10-19T18:18:54.981Z,98832.75
2022-10-19T18:21:25.875Z,98828.31
2022-10-19T18:23:53.666Z,98838.66
2022-10-19T18:26:22.363Z,98834.66
2022-10-19T18:28:50.292Z,98831.53
2022-10-19T18:31:22.300Z,98827.72
2022-10-19T18:33:50.780Z,98825.88
2022-10-19T18:36:17.383Z,98832.25
2022-10-19T18:38:44.111Z,98821.38
2022-10-19T18:44:02.015Z,98811.53
2022-10-19T18:46:29.085Z,98809.25
2022-10-19T18:48:55.701Z,98814.41
2022-10-19T18:51:23.686Z,98807.75
2022-10-19T18:53:50.679Z,98807.75
2022-10-19T18:56:19.676Z,98806.25
2022-10-19T18:58:46.949Z,98808.88
2022-10-19T19:01:13.566Z,98808.22
2022-10-19T19:03:42.628Z,98799.66
2022-10-19T19:06:14.670Z,98798.47
2022-10-19T19:08:41.503Z,98801.16
2022-10-19T19:11:10.450Z,98797.00
2022-10-19T19:13:37.615Z,98801.00
2022-10-19T19:16:04.829Z,98784.94
2022-10-19T19:18:33.811Z,98780.63
2022-10-19T19:21:02.141Z,98795.00
2022-10-19T19:23:30.293Z,98792.53
2022-10-19T19:25:57.446Z,98798.19
2022-10-19T19:28:24.128Z,98798.00
2022-10-19T19:30:50.840Z,98787.81
2022-10-19T19:33:17.601Z,98790.50
2022-10-19T19:35:48.233Z,98783.00
2022-10-19T19:38:15.547Z,98781.31
2022-10-19T19:40:43.745Z,98780.63
2022-10-19T19:43:11.014Z,98777.66
2022-10-19T19:45:38.188Z,98777.53
2022-10-19T19:48:06.004Z,98769.41
2022-10-19T19:50:33.407Z,98776.59
2022-10-19T19:53:00.793Z,98776.84
2022-10-19T19:55:28.505Z,98782.84
2022-10-19T19:57:55.399Z,98777.75
2022-10-19T20:00:23.411Z,98770.25
2022-10-19T20:02:54.328Z,98760.47
2022-10-19T20:05:21.119Z,98759.13
2022-10-19T20:07:48.050Z,98760.31
2022-10-19T20:10:18.138Z,98751.84
2022-10-19T20:12:45.928Z,98761.00
2022-10-19T20:15:14.200Z,98756.38
2022-10-19T20:17:41.145Z,98768.34
2022-10-19T20:20:09.797Z,98763.34
2022-10-19T20:22:37.073Z,98760.03
2022-10-19T20:25:04.534Z,98757.03
2022-10-19T20:27:35.036Z,98744.44
2022-10-19T20:30:01.921Z,98744.25
2022-10-19T20:32:29.002Z,98749.59
2022-10-19T20:34:55.690Z,98753.06
2022-10-19T20:37:22.305Z,98749.75
2022-10-19T20:39:49.293Z,98752.09
2022-10-19T20:42:17.773Z,98744.09
2022-10-19T20:44:44.842Z,98749.44
2022-10-19T20:47:11.819Z,98750.47
2022-10-19T20:49:40.801Z,98744.97
2022-10-19T20:52:07.807Z,98744.16
2022-10-19T20:54:35.797Z,98743.31
2022-10-19T20:57:02.431Z,98734.81
2022-10-19T20:59:30.412Z,98730.50
2022-10-19T21:01:57.952Z,98736.50
2022-10-19T21:04:25.706Z,98734.50
2022-10-19T21:06:52.588Z,98735.19
2022-10-19T21:09:21.721Z,98737.03
2022-10-19T21:11:50.276Z,98734.84
2022-10-19T21:14:25.296Z,98740.16
2022-10-19T21:16:56.610Z,98739.00
2022-10-19T21:19:25.528Z,98744.81
2022-10-19T21:21:57.076Z,98744.69
2022-10-19T21:24:26.133Z,98744.00
2022-10-19T21:26:52.995Z,98748.66
2022-10-19T21:29:19.666Z,98744.84
2022-10-19T21:31:49.113Z,98734.88
2022-10-19T21:34:24.881Z,98738.53
2022-10-19T21:36:51.589Z,98735.88
2022-10-19T21:39:18.743Z,98733.38
2022-10-19T21:41:46.501Z,98738.22
2022-10-19T21:44:14.332Z,98729.56
2022-10-19T21:46:43.009Z,98732.22
2022-10-19T21:49:12.887Z,98737.22
2022-10-19T21:51:42.960Z,98741.84
2022-10-19T21:54:13.332Z,98738.53
2022-10-19T21:56:40.320Z,98728.41
2022-10-19T21:59:07.004Z,98724.91
2022-10-19T22:01:38.563Z,98722.09
2022-10-19T22:04:12.157Z,98711.44
2022-10-19T22:06:38.922Z,98707.63
2022-10-19T22:09:07.084Z,98708.28
2022-10-19T22:11:34.332Z,98699.31
2022-10-19T22:14:02.765Z,98696.50
2022-10-19T22:16:29.909Z,98697.66
2022-10-19T22:18:57.054Z,98700.31
2022-10-19T22:21:26.944Z,98699.66
2022-10-19T22:23:59.144Z,98700.16
2022-10-19T22:26:31.566Z,98697.50
2022-10-19T22:28:59.634Z,98701.31
2022-10-19T22:31:27.245Z,98699.13
2022-10-19T22:33:54.145Z,98699.28
2022-10-19T22:36:21.004Z,98698.63
2022-10-19T22:38:47.868Z,98696.44
2022-10-19T22:41:14.542Z,98701.44
2022-10-19T22:43:41.172Z,98706.25
2022-10-19T22:46:07.866Z,98699.09
2022-10-19T22:48:34.470Z,98703.41
2022-10-19T22:51:01.099Z,98696.94
2022-10-19T22:53:27.776Z,98692.63
2022-10-19T22:55:54.333Z,98686.31
2022-10-19T22:58:21.015Z,98681.19
2022-10-19T23:01:18.617Z,98681.50
2022-10-19T23:03:45.448Z,98675.88
2022-10-19T23:06:13.743Z,98666.22
2022-10-19T23:08:40.347Z,98665.91
2022-10-19T23:11:07.044Z,98665.06
2022-10-19T23:13:33.719Z,98665.06
2022-10-19T23:16:00.412Z,98662.72
2022-10-19T23:18:26.999Z,98658.09
2022-10-19T23:21:01.031Z,98662.59
2022-10-19T23:23:29.105Z,98655.78
2022-10-19T23:26:00.802Z,98647.63
2022-10-19T23:28:28.269Z,98652.09
2022-10-19T23:30:57.258Z,98640.84
2022-10-19T23:33:24.393Z,98640.84
2022-10-19T23:35:51.071Z,98627.72
2022-10-19T23:38:18.041Z,98624.91
2022-10-19T23:40:44.890Z,98632.53
2022-10-19T23:43:11.783Z,98633.84
2022-10-19T23:45:41.516Z,98636.34
2022-10-19T23:48:08.207Z,98627.38
2022-10-19T23:50:34.948Z,98632.84
2022-10-19T23:53:01.629Z,98632.84
2022-10-19T23:55:28.419Z,98634.00
2022-10-19T23:57:55.033Z,98631.53
